This is the latest recevied weather packets stored in our database for station/object KO4RMV-3. If no packets are shown the sender has not sent any weather packets the latest 10 day(s).
| Time | Temp. | Humidity | Pressure | Rain* | Wind** | Luminosity | Snow |
|---|---|---|---|---|---|---|---|
| 1778077806 | 17.22° C | 84% | - | 1.27 mm | - | - | - |
| 1778076906 | 17.78° C | 81% | - | 1.02 mm | - | - | - |
| 1778076006 | 18.89° C | 76% | - | 0 mm | - | - | - |
| 1778075106 | 19.44° C | 70% | - | 0 mm | - | - | - |
| 1778074205 | 19.44° C | 70% | - | 0 mm | - | - | - |
| 1778073305 | 19.44° C | 69% | - | 0 mm | - | - | - |
| 1778072405 | 19.44° C | 70% | - | 0 mm | - | - | - |
| 1778071505 | 19.44° C | 71% | - | 0 mm | - | - | - |
| 1778070605 | 19.44° C | 71% | - | 0 mm | - | - | - |
| 1778069705 | 19.44° C | 71% | - | 0 mm | - | - | - |
| 1778068805 | 18.89° C | 73% | - | 0 mm | - | - | - |
| 1778067905 | 18.33° C | 74% | - | 0 mm | - | - | - |
| 1778067005 | 17.78° C | 74% | - | 0 mm | - | - | - |
| 1778066105 | 17.78° C | 74% | - | 0 mm | - | - | - |
| 1778065206 | 17.78° C | 74% | - | 0 mm | - | - | - |
| 1778064306 | 17.78° C | 74% | - | 0 mm | - | - | - |
| 1778063406 | 17.78° C | 74% | - | 0 mm | - | - | - |
| 1778062506 | 17.78° C | 74% | - | 0 mm | - | - | - |
| 1778061606 | 17.78° C | 74% | - | 0 mm | - | - | - |
| 1778060706 | 17.78° C | 74% | - | 0 mm | - | - | - |
| 1778059806 | 17.78° C | 75% | - | 0 mm | - | - | - |
| 1778058905 | 17.78° C | 75% | - | 0 mm | - | - | - |
| 1778058005 | 17.78° C | 75% | - | 0 mm | - | - | - |
| 1778057105 | 17.78° C | 75% | - | 0 mm | - | - | - |
| 1778056205 | 18.33° C | 74% | - | 0 mm | - | - | - |
* Rain latest hour (hover to see other rain measurements)
** Current wind speed in m/s (hover to see current wind gust speed)